Moorefield, West Virginia
Current Conditions -  °F | °C
As of 6:15 AM on Monday 22 Dec 2014 (Local Time) from KW99 Reporting Station
Haze Haze  
Wind Chill: 26°   Ceiling: 3400
Heat Index: 26°   Visibility: 5mi
Dew Point: 26°   Wind: 0mph
Humidity: 99%   Direction: NA
Pressure: 30.22"   Gusts: NA
Location:  39.06°N, 78.97°W
Report Text: KW99 221115Z AUTO 00000KT 5SM BR OVC034 M03/M03 A3022 RMK AO2 T10311032
Loading
Personal Weather Stations






























Interactive Weather Map New forecast layout! Learn more

10-Day Weather Forecast

Advertisements
Track Severe Weather on mobile